DTTB

Sidi Ahmed Air Base Airport

Sidi Ahmed, Tunisia
METAR DTTB 172100Z 08003KT 1000 BKN020 13/12 Q1018
Observed Flight Rules
Feb-17 @ 21:00 UTC (29 minutes ago) Instrument Flight Rules
Wind Visibility Clouds
80° at 3 knots 998 meters
  • Broken at 2,000' AGL
Temperatures Readings
Current 13°C / 55°F
Dewpoint 12°C / 54°F
Humidity 94%
Altimeter 30.06" Hg
Pressure 1018 hPa
Elevation 3
METAR DTTB 172100Z 08003KT 1000 BKN020 13/12 Q1018
Observed Flight Rules
Feb-17 @ 21:00 UTC
(29 minutes ago)
LIFR
Wind Visibility
80° at 3 knots 998 meters
Clouds
  • Broken at 2,000' AGL
Temperature Dewpoint
13°C / 55°F 12°C / 54°F
Humidity Altimeter Pressure
94% 30.06" Hg 1018 hPa